Terminal Aerodrome Forecast
Issued by NWS Wilmington, OH

Current Version | Previous Version | Text Only | Print | Product List | Glossary Off
Versions: 1 2 3 4 5 6 7 8 9 10 11 12 13 14 15 16 17 18 19 20 21 22

000
FTUS41 KILN 250300 AAA
TAFDAY
TAF AMD
KDAY 250328Z 2503/2524 25014G22KT P6SM BKN045
     FM250600 25012KT P6SM BKN045
     FM251200 25012G20KT P6SM BKN025
     FM252100 27010KT P6SM SCT030=

USA.gov is the U.S. government's official web portal to all federal, state and local government web resources and services.